Great Falls, Montana
Current Conditions -  °F | °C
As of 4:53 AM on Friday 31 Oct 2014 (Local Time) from KGTF Reporting Station
Clear Clear  
Wind Chill: 52°   Ceiling: Unl
Heat Index: 52°   Visibility: 10mi
Dew Point: 30°   Wind: 12mph
Humidity: 43%   Direction: 160°SSE
Pressure: 29.89"   Gusts: NA
Location:  47.51°N, 111.3°W
Report Text: KGTF 311053Z 16010KT 10SM CLR 11/M01 A2989 RMK AO2 SLP116 T01111011
Loading
Personal Weather Stations






























Interactive Weather Map New forecast layout! Learn more

10-Day Weather Forecast

Advertisements
Track Severe Weather on mobile